sensor_id;sensor_type;location;lat;lon;timestamp;temperature;humidity
2010;DHT22;1008;47.404;8.502;2023-03-13T00:01:37;7.60;99.90
2010;DHT22;1008;47.404;8.502;2023-03-13T00:04:04;7.70;99.90
2010;DHT22;1008;47.404;8.502;2023-03-13T00:06:33;7.80;99.90
2010;DHT22;1008;47.404;8.502;2023-03-13T00:09:00;7.90;99.90
2010;DHT22;1008;47.404;8.502;2023-03-13T00:11:27;7.80;99.90
2010;DHT22;1008;47.404;8.502;2023-03-13T00:13:55;7.80;99.90
2010;DHT22;1008;47.404;8.502;2023-03-13T00:16:24;7.80;99.90
2010;DHT22;1008;47.404;8.502;2023-03-13T00:18:51;7.90;99.90
2010;DHT22;1008;47.404;8.502;2023-03-13T00:21:20;7.90;99.90
2010;DHT22;1008;47.404;8.502;2023-03-13T00:23:47;8.00;99.90
2010;DHT22;1008;47.404;8.502;2023-03-13T00:26:16;8.00;99.90
2010;DHT22;1008;47.404;8.502;2023-03-13T00:28:44;8.00;99.90
2010;DHT22;1008;47.404;8.502;2023-03-13T00:31:13;8.10;99.90
2010;DHT22;1008;47.404;8.502;2023-03-13T00:33:42;8.30;99.90
2010;DHT22;1008;47.404;8.502;2023-03-13T00:36:12;8.30;99.90
2010;DHT22;1008;47.404;8.502;2023-03-13T00:38:40;8.30;99.90
2010;DHT22;1008;47.404;8.502;2023-03-13T00:41:08;8.10;99.90
2010;DHT22;1008;47.404;8.502;2023-03-13T00:43:37;8.10;99.90
2010;DHT22;1008;47.404;8.502;2023-03-13T00:46:04;8.00;99.90
2010;DHT22;1008;47.404;8.502;2023-03-13T00:48:31;8.10;99.90
2010;DHT22;1008;47.404;8.502;2023-03-13T00:51:00;8.20;99.90
2010;DHT22;1008;47.404;8.502;2023-03-13T00:53:27;8.20;99.90
2010;DHT22;1008;47.404;8.502;2023-03-13T00:55:55;8.20;99.90
2010;DHT22;1008;47.404;8.502;2023-03-13T00:58:23;8.30;99.90
2010;DHT22;1008;47.404;8.502;2023-03-13T01:00:50;8.30;99.90
2010;DHT22;1008;47.404;8.502;2023-03-13T01:03:17;8.50;99.90
2010;DHT22;1008;47.404;8.502;2023-03-13T01:05:44;8.50;99.90
2010;DHT22;1008;47.404;8.502;2023-03-13T01:08:13;8.70;99.90
2010;DHT22;1008;47.404;8.502;2023-03-13T01:10:39;8.80;99.90
2010;DHT22;1008;47.404;8.502;2023-03-13T01:13:06;8.80;99.90
2010;DHT22;1008;47.404;8.502;2023-03-13T01:15:34;8.80;99.90
2010;DHT22;1008;47.404;8.502;2023-03-13T01:18:01;8.70;99.90
2010;DHT22;1008;47.404;8.502;2023-03-13T01:20:29;8.80;99.90
2010;DHT22;1008;47.404;8.502;2023-03-13T01:22:56;8.80;99.90
2010;DHT22;1008;47.404;8.502;2023-03-13T01:25:24;8.80;99.90
2010;DHT22;1008;47.404;8.502;2023-03-13T01:27:51;8.80;99.90
2010;DHT22;1008;47.404;8.502;2023-03-13T01:30:18;8.90;99.90
2010;DHT22;1008;47.404;8.502;2023-03-13T01:32:44;8.90;99.90
2010;DHT22;1008;47.404;8.502;2023-03-13T01:35:11;8.90;99.90
2010;DHT22;1008;47.404;8.502;2023-03-13T01:37:39;8.90;99.90
2010;DHT22;1008;47.404;8.502;2023-03-13T01:40:07;8.90;99.90
2010;DHT22;1008;47.404;8.502;2023-03-13T01:42:51;9.00;99.90
2010;DHT22;1008;47.404;8.502;2023-03-13T01:45:53;8.90;99.90
2010;DHT22;1008;47.404;8.502;2023-03-13T01:48:25;9.00;99.90
2010;DHT22;1008;47.404;8.502;2023-03-13T01:50:53;9.10;99.90
2010;DHT22;1008;47.404;8.502;2023-03-13T01:53:20;9.10;99.90
2010;DHT22;1008;47.404;8.502;2023-03-13T01:55:47;9.00;99.90
2010;DHT22;1008;47.404;8.502;2023-03-13T01:58:15;9.20;99.90
2010;DHT22;1008;47.404;8.502;2023-03-13T02:00:43;9.00;99.90
2010;DHT22;1008;47.404;8.502;2023-03-13T02:03:13;8.80;99.90
2010;DHT22;1008;47.404;8.502;2023-03-13T02:05:41;8.80;99.90
2010;DHT22;1008;47.404;8.502;2023-03-13T02:08:12;8.70;99.90
2010;DHT22;1008;47.404;8.502;2023-03-13T02:10:44;8.50;99.90
2010;DHT22;1008;47.404;8.502;2023-03-13T02:13:17;8.60;99.90
2010;DHT22;1008;47.404;8.502;2023-03-13T02:15:44;8.70;99.90
2010;DHT22;1008;47.404;8.502;2023-03-13T02:18:12;8.50;99.90
2010;DHT22;1008;47.404;8.502;2023-03-13T02:20:39;8.50;99.90
2010;DHT22;1008;47.404;8.502;2023-03-13T02:23:12;8.40;99.90
2010;DHT22;1008;47.404;8.502;2023-03-13T02:25:43;8.50;99.90
2010;DHT22;1008;47.404;8.502;2023-03-13T02:28:13;8.50;99.90
2010;DHT22;1008;47.404;8.502;2023-03-13T02:30:42;8.50;99.90
2010;DHT22;1008;47.404;8.502;2023-03-13T02:33:10;8.40;99.90
2010;DHT22;1008;47.404;8.502;2023-03-13T02:35:37;8.40;99.90
2010;DHT22;1008;47.404;8.502;2023-03-13T02:38:07;8.50;99.90
2010;DHT22;1008;47.404;8.502;2023-03-13T02:40:36;8.70;99.90
2010;DHT22;1008;47.404;8.502;2023-03-13T02:43:07;8.60;99.90
2010;DHT22;1008;47.404;8.502;2023-03-13T02:45:35;8.70;99.90
2010;DHT22;1008;47.404;8.502;2023-03-13T02:48:02;8.60;99.90
2010;DHT22;1008;47.404;8.502;2023-03-13T02:50:29;8.50;99.90
2010;DHT22;1008;47.404;8.502;2023-03-13T02:52:59;8.60;99.90
2010;DHT22;1008;47.404;8.502;2023-03-13T02:55:29;8.70;99.90
2010;DHT22;1008;47.404;8.502;2023-03-13T02:57:56;8.90;99.90
2010;DHT22;1008;47.404;8.502;2023-03-13T03:00:24;9.00;99.90
2010;DHT22;1008;47.404;8.502;2023-03-13T03:02:52;9.10;99.90
2010;DHT22;1008;47.404;8.502;2023-03-13T03:05:19;9.30;99.90
2010;DHT22;1008;47.404;8.502;2023-03-13T03:07:47;9.50;99.90
2010;DHT22;1008;47.404;8.502;2023-03-13T03:10:14;9.60;99.90
2010;DHT22;1008;47.404;8.502;2023-03-13T03:12:41;9.60;99.90
2010;DHT22;1008;47.404;8.502;2023-03-13T03:15:08;9.50;99.90
2010;DHT22;1008;47.404;8.502;2023-03-13T03:17:37;9.50;99.90
2010;DHT22;1008;47.404;8.502;2023-03-13T03:20:05;9.60;99.90
2010;DHT22;1008;47.404;8.502;2023-03-13T03:22:36;9.50;99.90
2010;DHT22;1008;47.404;8.502;2023-03-13T03:25:08;9.70;99.90
2010;DHT22;1008;47.404;8.502;2023-03-13T03:27:35;9.70;99.90
2010;DHT22;1008;47.404;8.502;2023-03-13T03:30:03;9.80;99.90
2010;DHT22;1008;47.404;8.502;2023-03-13T03:32:30;9.90;99.90
2010;DHT22;1008;47.404;8.502;2023-03-13T03:34:58;9.90;99.90
2010;DHT22;1008;47.404;8.502;2023-03-13T03:37:24;9.90;99.90
2010;DHT22;1008;47.404;8.502;2023-03-13T03:39:51;10.00;99.90
2010;DHT22;1008;47.404;8.502;2023-03-13T03:42:18;10.00;99.90
2010;DHT22;1008;47.404;8.502;2023-03-13T03:44:45;10.00;99.90
2010;DHT22;1008;47.404;8.502;2023-03-13T03:47:11;10.00;99.90
2010;DHT22;1008;47.404;8.502;2023-03-13T03:49:38;10.00;99.90
2010;DHT22;1008;47.404;8.502;2023-03-13T03:52:06;9.80;99.90
2010;DHT22;1008;47.404;8.502;2023-03-13T03:54:33;9.80;99.90
2010;DHT22;1008;47.404;8.502;2023-03-13T03:57:00;9.90;99.90
2010;DHT22;1008;47.404;8.502;2023-03-13T03:59:27;10.00;99.90
2010;DHT22;1008;47.404;8.502;2023-03-13T04:01:53;9.90;99.90
2010;DHT22;1008;47.404;8.502;2023-03-13T04:04:20;9.90;99.90
2010;DHT22;1008;47.404;8.502;2023-03-13T04:06:47;10.00;99.90
2010;DHT22;1008;47.404;8.502;2023-03-13T04:09:15;9.80;99.90
2010;DHT22;1008;47.404;8.502;2023-03-13T04:11:42;9.80;99.90
2010;DHT22;1008;47.404;8.502;2023-03-13T04:14:09;10.00;99.90
2010;DHT22;1008;47.404;8.502;2023-03-13T04:16:35;9.90;99.90
2010;DHT22;1008;47.404;8.502;2023-03-13T04:19:02;9.90;99.90
2010;DHT22;1008;47.404;8.502;2023-03-13T04:21:29;9.90;99.90
2010;DHT22;1008;47.404;8.502;2023-03-13T04:23:56;9.90;99.90
2010;DHT22;1008;47.404;8.502;2023-03-13T04:26:24;9.90;99.90
2010;DHT22;1008;47.404;8.502;2023-03-13T04:28:51;9.90;99.90
2010;DHT22;1008;47.404;8.502;2023-03-13T04:31:18;10.00;99.90
2010;DHT22;1008;47.404;8.502;2023-03-13T04:33:44;10.00;99.90
2010;DHT22;1008;47.404;8.502;2023-03-13T04:36:11;10.10;99.90
2010;DHT22;1008;47.404;8.502;2023-03-13T04:38:38;10.10;99.90
2010;DHT22;1008;47.404;8.502;2023-03-13T04:41:05;10.10;99.90
2010;DHT22;1008;47.404;8.502;2023-03-13T04:43:33;10.20;99.90
2010;DHT22;1008;47.404;8.502;2023-03-13T04:45:59;10.40;99.90
2010;DHT22;1008;47.404;8.502;2023-03-13T04:48:26;10.30;99.90
2010;DHT22;1008;47.404;8.502;2023-03-13T04:50:53;10.40;99.90
2010;DHT22;1008;47.404;8.502;2023-03-13T04:53:19;10.60;99.90
2010;DHT22;1008;47.404;8.502;2023-03-13T04:55:47;10.50;99.90
2010;DHT22;1008;47.404;8.502;2023-03-13T04:58:14;10.60;99.90
2010;DHT22;1008;47.404;8.502;2023-03-13T05:00:42;10.60;99.90
2010;DHT22;1008;47.404;8.502;2023-03-13T05:03:09;10.70;99.90
2010;DHT22;1008;47.404;8.502;2023-03-13T05:05:35;10.50;99.90
2010;DHT22;1008;47.404;8.502;2023-03-13T05:08:02;10.60;99.90
2010;DHT22;1008;47.404;8.502;2023-03-13T05:10:30;10.60;99.90
2010;DHT22;1008;47.404;8.502;2023-03-13T05:12:57;10.60;99.90
2010;DHT22;1008;47.404;8.502;2023-03-13T05:15:23;10.80;99.90
2010;DHT22;1008;47.404;8.502;2023-03-13T05:17:51;10.80;99.90
2010;DHT22;1008;47.404;8.502;2023-03-13T05:20:18;10.70;99.90
2010;DHT22;1008;47.404;8.502;2023-03-13T05:22:45;10.70;99.90
2010;DHT22;1008;47.404;8.502;2023-03-13T05:25:12;10.60;99.90
2010;DHT22;1008;47.404;8.502;2023-03-13T05:27:38;10.50;99.90
2010;DHT22;1008;47.404;8.502;2023-03-13T05:30:06;10.50;99.90
2010;DHT22;1008;47.404;8.502;2023-03-13T05:32:33;10.40;99.90
2010;DHT22;1008;47.404;8.502;2023-03-13T05:35:01;10.30;99.90
2010;DHT22;1008;47.404;8.502;2023-03-13T05:37:28;10.20;99.90
2010;DHT22;1008;47.404;8.502;2023-03-13T05:39:55;10.00;99.90
2010;DHT22;1008;47.404;8.502;2023-03-13T05:42:22;10.10;99.90
2010;DHT22;1008;47.404;8.502;2023-03-13T05:44:49;10.00;99.90
2010;DHT22;1008;47.404;8.502;2023-03-13T05:47:16;10.00;99.90
2010;DHT22;1008;47.404;8.502;2023-03-13T05:49:43;10.00;99.90
2010;DHT22;1008;47.404;8.502;2023-03-13T05:52:11;10.00;99.90
2010;DHT22;1008;47.404;8.502;2023-03-13T05:54:38;10.00;99.90
2010;DHT22;1008;47.404;8.502;2023-03-13T05:57:05;10.00;99.90
2010;DHT22;1008;47.404;8.502;2023-03-13T05:59:31;10.00;99.90
2010;DHT22;1008;47.404;8.502;2023-03-13T06:01:58;10.20;99.90
2010;DHT22;1008;47.404;8.502;2023-03-13T06:04:25;10.00;99.90
2010;DHT22;1008;47.404;8.502;2023-03-13T06:06:52;10.10;99.90
2010;DHT22;1008;47.404;8.502;2023-03-13T06:09:20;10.20;99.90
2010;DHT22;1008;47.404;8.502;2023-03-13T06:11:47;10.40;99.90
2010;DHT22;1008;47.404;8.502;2023-03-13T06:14:14;10.40;99.90
2010;DHT22;1008;47.404;8.502;2023-03-13T06:16:40;10.60;99.90
2010;DHT22;1008;47.404;8.502;2023-03-13T06:19:07;10.60;99.90
2010;DHT22;1008;47.404;8.502;2023-03-13T06:21:34;10.60;99.90
2010;DHT22;1008;47.404;8.502;2023-03-13T06:24:01;10.50;99.90
2010;DHT22;1008;47.404;8.502;2023-03-13T06:26:29;10.60;99.90
2010;DHT22;1008;47.404;8.502;2023-03-13T06:28:55;10.90;99.90
2010;DHT22;1008;47.404;8.502;2023-03-13T06:31:22;10.90;99.90
2010;DHT22;1008;47.404;8.502;2023-03-13T06:33:52;10.90;99.90
2010;DHT22;1008;47.404;8.502;2023-03-13T06:36:19;11.00;99.90
2010;DHT22;1008;47.404;8.502;2023-03-13T06:38:46;11.10;99.90
2010;DHT22;1008;47.404;8.502;2023-03-13T06:41:13;11.20;99.90
2010;DHT22;1008;47.404;8.502;2023-03-13T06:43:41;11.20;99.90
2010;DHT22;1008;47.404;8.502;2023-03-13T06:46:15;11.30;99.90
2010;DHT22;1008;47.404;8.502;2023-03-13T06:48:42;11.40;99.90
2010;DHT22;1008;47.404;8.502;2023-03-13T06:51:11;11.60;99.90
2010;DHT22;1008;47.404;8.502;2023-03-13T06:53:37;11.60;99.90
2010;DHT22;1008;47.404;8.502;2023-03-13T06:56:05;11.60;99.90
2010;DHT22;1008;47.404;8.502;2023-03-13T06:58:32;11.50;99.90
2010;DHT22;1008;47.404;8.502;2023-03-13T07:01:05;11.50;99.90
2010;DHT22;1008;47.404;8.502;2023-03-13T07:03:32;11.60;99.90
2010;DHT22;1008;47.404;8.502;2023-03-13T07:05:59;11.60;99.90
2010;DHT22;1008;47.404;8.502;2023-03-13T07:08:27;11.60;99.90
2010;DHT22;1008;47.404;8.502;2023-03-13T07:10:57;11.60;99.90
2010;DHT22;1008;47.404;8.502;2023-03-13T07:13:25;11.70;99.90
2010;DHT22;1008;47.404;8.502;2023-03-13T07:15:51;11.80;99.90
2010;DHT22;1008;47.404;8.502;2023-03-13T07:18:21;11.80;99.90
2010;DHT22;1008;47.404;8.502;2023-03-13T07:20:51;11.80;99.90
2010;DHT22;1008;47.404;8.502;2023-03-13T07:23:19;11.80;99.90
2010;DHT22;1008;47.404;8.502;2023-03-13T07:25:52;12.00;99.90
2010;DHT22;1008;47.404;8.502;2023-03-13T07:28:19;11.90;99.90
2010;DHT22;1008;47.404;8.502;2023-03-13T07:30:46;12.00;99.90
2010;DHT22;1008;47.404;8.502;2023-03-13T07:33:12;12.10;99.90
2010;DHT22;1008;47.404;8.502;2023-03-13T07:35:44;12.20;99.90
2010;DHT22;1008;47.404;8.502;2023-03-13T07:38:12;12.20;99.90
2010;DHT22;1008;47.404;8.502;2023-03-13T07:40:39;12.30;99.90
2010;DHT22;1008;47.404;8.502;2023-03-13T07:43:06;12.30;99.90
2010;DHT22;1008;47.404;8.502;2023-03-13T07:45:32;12.30;99.90
2010;DHT22;1008;47.404;8.502;2023-03-13T07:47:59;12.30;99.90
2010;DHT22;1008;47.404;8.502;2023-03-13T07:50:26;12.40;99.90
2010;DHT22;1008;47.404;8.502;2023-03-13T07:52:54;12.50;99.90
2010;DHT22;1008;47.404;8.502;2023-03-13T07:55:21;12.80;99.90
2010;DHT22;1008;47.404;8.502;2023-03-13T07:57:47;13.00;99.90
2010;DHT22;1008;47.404;8.502;2023-03-13T08:00:15;13.00;99.90
2010;DHT22;1008;47.404;8.502;2023-03-13T08:02:43;12.90;99.90
2010;DHT22;1008;47.404;8.502;2023-03-13T08:05:09;13.00;99.90
2010;DHT22;1008;47.404;8.502;2023-03-13T08:07:36;13.00;99.90
2010;DHT22;1008;47.404;8.502;2023-03-13T08:10:05;13.20;99.90
2010;DHT22;1008;47.404;8.502;2023-03-13T08:12:32;13.50;99.90
2010;DHT22;1008;47.404;8.502;2023-03-13T08:14:58;13.60;99.90
2010;DHT22;1008;47.404;8.502;2023-03-13T08:17:28;13.50;99.90
2010;DHT22;1008;47.404;8.502;2023-03-13T08:19:54;13.60;99.90
2010;DHT22;1008;47.404;8.502;2023-03-13T08:22:21;13.60;99.90
2010;DHT22;1008;47.404;8.502;2023-03-13T08:24:48;13.50;99.90
2010;DHT22;1008;47.404;8.502;2023-03-13T08:27:16;13.50;99.90
2010;DHT22;1008;47.404;8.502;2023-03-13T08:29:43;13.70;99.90
2010;DHT22;1008;47.404;8.502;2023-03-13T08:32:09;13.80;99.90
2010;DHT22;1008;47.404;8.502;2023-03-13T08:34:37;14.20;99.90
2010;DHT22;1008;47.404;8.502;2023-03-13T08:37:04;14.00;99.90
2010;DHT22;1008;47.404;8.502;2023-03-13T08:39:31;13.90;99.90
2010;DHT22;1008;47.404;8.502;2023-03-13T08:41:57;14.10;99.90
2010;DHT22;1008;47.404;8.502;2023-03-13T08:44:26;14.00;99.90
2010;DHT22;1008;47.404;8.502;2023-03-13T08:46:52;14.00;99.90
2010;DHT22;1008;47.404;8.502;2023-03-13T08:49:22;14.30;99.90
2010;DHT22;1008;47.404;8.502;2023-03-13T08:51:49;14.50;99.90
2010;DHT22;1008;47.404;8.502;2023-03-13T08:54:16;14.90;99.90
2010;DHT22;1008;47.404;8.502;2023-03-13T08:56:42;15.00;99.90
2010;DHT22;1008;47.404;8.502;2023-03-13T08:59:09;15.00;99.90
2010;DHT22;1008;47.404;8.502;2023-03-13T09:01:38;15.00;99.90
2010;DHT22;1008;47.404;8.502;2023-03-13T09:04:05;15.10;99.90
2010;DHT22;1008;47.404;8.502;2023-03-13T09:06:32;15.30;99.90
2010;DHT22;1008;47.404;8.502;2023-03-13T09:08:59;15.60;99.90
2010;DHT22;1008;47.404;8.502;2023-03-13T09:11:27;15.30;99.90
2010;DHT22;1008;47.404;8.502;2023-03-13T09:13:54;15.50;99.90
2010;DHT22;1008;47.404;8.502;2023-03-13T09:16:24;15.70;99.90
2010;DHT22;1008;47.404;8.502;2023-03-13T09:18:53;15.80;99.90
2010;DHT22;1008;47.404;8.502;2023-03-13T09:21:21;15.80;99.90
2010;DHT22;1008;47.404;8.502;2023-03-13T09:23:49;15.80;99.90
2010;DHT22;1008;47.404;8.502;2023-03-13T09:26:16;15.40;99.90
2010;DHT22;1008;47.404;8.502;2023-03-13T09:28:43;15.90;99.90
2010;DHT22;1008;47.404;8.502;2023-03-13T09:31:12;16.20;99.90
2010;DHT22;1008;47.404;8.502;2023-03-13T09:33:40;16.10;99.90
2010;DHT22;1008;47.404;8.502;2023-03-13T09:36:09;16.00;99.90
2010;DHT22;1008;47.404;8.502;2023-03-13T09:38:36;15.80;99.90
2010;DHT22;1008;47.404;8.502;2023-03-13T09:41:22;15.30;99.90
2010;DHT22;1008;47.404;8.502;2023-03-13T09:43:53;15.30;99.90
2010;DHT22;1008;47.404;8.502;2023-03-13T09:46:24;15.40;99.90
2010;DHT22;1008;47.404;8.502;2023-03-13T09:48:54;15.90;99.90
2010;DHT22;1008;47.404;8.502;2023-03-13T09:51:26;16.00;99.90
2010;DHT22;1008;47.404;8.502;2023-03-13T09:53:57;16.10;98.40
2010;DHT22;1008;47.404;8.502;2023-03-13T09:56:30;16.00;98.80
2010;DHT22;1008;47.404;8.502;2023-03-13T09:59:00;16.20;99.00
2010;DHT22;1008;47.404;8.502;2023-03-13T10:01:32;16.30;99.90
2010;DHT22;1008;47.404;8.502;2023-03-13T10:04:05;16.60;98.40
2010;DHT22;1008;47.404;8.502;2023-03-13T10:06:39;16.60;99.20
2010;DHT22;1008;47.404;8.502;2023-03-13T10:09:16;16.90;98.50
2010;DHT22;1008;47.404;8.502;2023-03-13T10:11:50;17.10;96.60
2010;DHT22;1008;47.404;8.502;2023-03-13T10:14:21;17.00;98.60
2010;DHT22;1008;47.404;8.502;2023-03-13T10:16:55;17.00;97.90
2010;DHT22;1008;47.404;8.502;2023-03-13T10:19:27;16.80;97.50
2010;DHT22;1008;47.404;8.502;2023-03-13T10:22:01;17.00;96.70
2010;DHT22;1008;47.404;8.502;2023-03-13T10:24:32;17.10;96.60
2010;DHT22;1008;47.404;8.502;2023-03-13T10:26:59;17.30;95.60
2010;DHT22;1008;47.404;8.502;2023-03-13T10:29:27;16.80;95.30
2010;DHT22;1008;47.404;8.502;2023-03-13T10:31:56;16.60;95.40
2010;DHT22;1008;47.404;8.502;2023-03-13T10:34:24;16.40;95.70
2010;DHT22;1008;47.404;8.502;2023-03-13T10:36:56;16.30;96.50
2010;DHT22;1008;47.404;8.502;2023-03-13T10:39:26;16.30;96.30
2010;DHT22;1008;47.404;8.502;2023-03-13T10:41:58;16.50;96.90
2010;DHT22;1008;47.404;8.502;2023-03-13T10:44:33;17.00;97.50
2010;DHT22;1008;47.404;8.502;2023-03-13T10:47:01;17.60;96.70
2010;DHT22;1008;47.404;8.502;2023-03-13T10:49:30;17.80;96.00
2010;DHT22;1008;47.404;8.502;2023-03-13T10:52:01;17.80;95.10
2010;DHT22;1008;47.404;8.502;2023-03-13T10:54:31;18.10;93.60
2010;DHT22;1008;47.404;8.502;2023-03-13T10:57:27;17.90;92.40
2010;DHT22;1008;47.404;8.502;2023-03-13T10:59:55;18.00;93.10
2010;DHT22;1008;47.404;8.502;2023-03-13T11:02:26;18.60;93.70
2010;DHT22;1008;47.404;8.502;2023-03-13T11:04:53;18.30;92.60
2010;DHT22;1008;47.404;8.502;2023-03-13T11:07:24;18.20;92.60
2010;DHT22;1008;47.404;8.502;2023-03-13T11:09:58;18.10;91.50
2010;DHT22;1008;47.404;8.502;2023-03-13T11:12:26;18.40;93.00
2010;DHT22;1008;47.404;8.502;2023-03-13T11:14:56;19.00;91.50
2010;DHT22;1008;47.404;8.502;2023-03-13T11:17:29;19.20;90.00
2010;DHT22;1008;47.404;8.502;2023-03-13T11:20:07;19.00;90.10
2010;DHT22;1008;47.404;8.502;2023-03-13T11:23:09;18.80;91.00
2010;DHT22;1008;47.404;8.502;2023-03-13T11:25:42;18.80;88.70
2010;DHT22;1008;47.404;8.502;2023-03-13T11:28:29;19.10;90.70
2010;DHT22;1008;47.404;8.502;2023-03-13T11:31:10;19.30;90.20
2010;DHT22;1008;47.404;8.502;2023-03-13T11:33:46;19.90;90.70
2010;DHT22;1008;47.404;8.502;2023-03-13T11:36:20;19.90;90.50
2010;DHT22;1008;47.404;8.502;2023-03-13T11:38:53;19.90;91.50
2010;DHT22;1008;47.404;8.502;2023-03-13T11:41:30;19.00;92.00
2010;DHT22;1008;47.404;8.502;2023-03-13T11:44:27;19.00;92.90
2010;DHT22;1008;47.404;8.502;2023-03-13T11:47:04;18.70;94.20
2010;DHT22;1008;47.404;8.502;2023-03-13T11:49:45;18.40;95.20
2010;DHT22;1008;47.404;8.502;2023-03-13T11:52:30;18.60;94.10
2010;DHT22;1008;47.404;8.502;2023-03-13T11:58:08;18.80;95.50
2010;DHT22;1008;47.404;8.502;2023-03-13T12:00:47;19.20;94.40
2010;DHT22;1008;47.404;8.502;2023-03-13T12:03:19;19.70;93.60
2010;DHT22;1008;47.404;8.502;2023-03-13T12:05:50;19.60;93.20
2010;DHT22;1008;47.404;8.502;2023-03-13T12:08:19;19.60;92.60
2010;DHT22;1008;47.404;8.502;2023-03-13T12:10:54;19.50;93.10
2010;DHT22;1008;47.404;8.502;2023-03-13T12:13:28;19.30;93.30
2010;DHT22;1008;47.404;8.502;2023-03-13T12:15:59;19.10;93.40
2010;DHT22;1008;47.404;8.502;2023-03-13T12:18:30;19.10;93.40
2010;DHT22;1008;47.404;8.502;2023-03-13T12:21:02;19.50;93.20
2010;DHT22;1008;47.404;8.502;2023-03-13T12:23:39;19.30;93.80
2010;DHT22;1008;47.404;8.502;2023-03-13T12:26:11;19.40;93.20
2010;DHT22;1008;47.404;8.502;2023-03-13T12:28:42;19.30;94.10
2010;DHT22;1008;47.404;8.502;2023-03-13T12:31:17;19.80;90.30
2010;DHT22;1008;47.404;8.502;2023-03-13T12:33:49;20.20;89.30
2010;DHT22;1008;47.404;8.502;2023-03-13T12:36:20;20.40;89.70
2010;DHT22;1008;47.404;8.502;2023-03-13T12:38:55;20.60;86.30
2010;DHT22;1008;47.404;8.502;2023-03-13T12:41:24;19.90;83.40
2010;DHT22;1008;47.404;8.502;2023-03-13T12:43:54;19.90;84.00
2010;DHT22;1008;47.404;8.502;2023-03-13T12:46:40;19.90;83.90
2010;DHT22;1008;47.404;8.502;2023-03-13T12:52:48;20.70;80.70
2010;DHT22;1008;47.404;8.502;2023-03-13T12:55:36;21.10;79.00
2010;DHT22;1008;47.404;8.502;2023-03-13T12:58:16;21.30;77.10
2010;DHT22;1008;47.404;8.502;2023-03-13T13:00:48;21.50;78.00
2010;DHT22;1008;47.404;8.502;2023-03-13T13:03:28;21.60;75.50
2010;DHT22;1008;47.404;8.502;2023-03-13T13:06:05;21.50;75.50
2010;DHT22;1008;47.404;8.502;2023-03-13T13:08:36;21.50;75.20
2010;DHT22;1008;47.404;8.502;2023-03-13T13:11:33;21.30;74.20
2010;DHT22;1008;47.404;8.502;2023-03-13T13:14:01;21.00;77.60
2010;DHT22;1008;47.404;8.502;2023-03-13T13:16:30;20.20;83.70
2010;DHT22;1008;47.404;8.502;2023-03-13T13:19:42;19.70;87.20
2010;DHT22;1008;47.404;8.502;2023-03-13T13:22:44;19.80;79.60
2010;DHT22;1008;47.404;8.502;2023-03-13T13:25:32;20.30;78.70
2010;DHT22;1008;47.404;8.502;2023-03-13T13:28:26;20.40;74.70
2010;DHT22;1008;47.404;8.502;2023-03-13T13:30:57;20.60;77.00
2010;DHT22;1008;47.404;8.502;2023-03-13T13:33:37;20.30;75.00
2010;DHT22;1008;47.404;8.502;2023-03-13T13:36:30;20.10;73.90
2010;DHT22;1008;47.404;8.502;2023-03-13T13:39:25;20.00;73.70
2010;DHT22;1008;47.404;8.502;2023-03-13T13:41:55;19.90;75.10
2010;DHT22;1008;47.404;8.502;2023-03-13T13:44:28;19.90;76.80
2010;DHT22;1008;47.404;8.502;2023-03-13T13:46:57;20.10;77.90
2010;DHT22;1008;47.404;8.502;2023-03-13T13:49:36;20.10;79.30
2010;DHT22;1008;47.404;8.502;2023-03-13T13:55:30;19.60;76.90
2010;DHT22;1008;47.404;8.502;2023-03-13T13:58:02;19.90;77.80
2010;DHT22;1008;47.404;8.502;2023-03-13T14:00:37;20.40;76.80
2010;DHT22;1008;47.404;8.502;2023-03-13T14:03:19;20.60;74.90
2010;DHT22;1008;47.404;8.502;2023-03-13T14:05:50;20.40;73.70
2010;DHT22;1008;47.404;8.502;2023-03-13T14:08:20;20.00;75.10
2010;DHT22;1008;47.404;8.502;2023-03-13T14:10:53;20.00;78.10
2010;DHT22;1008;47.404;8.502;2023-03-13T14:13:29;20.00;77.70
2010;DHT22;1008;47.404;8.502;2023-03-13T14:15:55;20.40;77.00
2010;DHT22;1008;47.404;8.502;2023-03-13T14:18:24;20.40;74.50
2010;DHT22;1008;47.404;8.502;2023-03-13T14:20:57;20.40;77.70
2010;DHT22;1008;47.404;8.502;2023-03-13T14:23:33;20.40;77.20
2010;DHT22;1008;47.404;8.502;2023-03-13T14:26:12;20.70;77.60
2010;DHT22;1008;47.404;8.502;2023-03-13T14:28:42;21.00;77.50
2010;DHT22;1008;47.404;8.502;2023-03-13T14:31:09;21.40;76.60
2010;DHT22;1008;47.404;8.502;2023-03-13T14:33:36;21.40;79.00
2010;DHT22;1008;47.404;8.502;2023-03-13T14:36:05;21.40;81.10
2010;DHT22;1008;47.404;8.502;2023-03-13T14:38:32;21.00;82.20
2010;DHT22;1008;47.404;8.502;2023-03-13T14:40:59;20.70;81.60
2010;DHT22;1008;47.404;8.502;2023-03-13T14:43:31;20.60;78.00
2010;DHT22;1008;47.404;8.502;2023-03-13T14:45:59;20.60;77.20
2010;DHT22;1008;47.404;8.502;2023-03-13T14:48:29;20.30;78.00
2010;DHT22;1008;47.404;8.502;2023-03-13T14:51:02;20.10;77.20
2010;DHT22;1008;47.404;8.502;2023-03-13T14:53:31;20.10;79.40
2010;DHT22;1008;47.404;8.502;2023-03-13T14:56:13;20.20;80.20
2010;DHT22;1008;47.404;8.502;2023-03-13T14:58:43;20.30;81.00
2010;DHT22;1008;47.404;8.502;2023-03-13T15:01:22;20.40;83.30
2010;DHT22;1008;47.404;8.502;2023-03-13T15:03:50;20.50;84.60
2010;DHT22;1008;47.404;8.502;2023-03-13T15:06:19;20.50;85.40
2010;DHT22;1008;47.404;8.502;2023-03-13T15:08:49;20.40;84.60
2010;DHT22;1008;47.404;8.502;2023-03-13T15:11:33;20.50;85.50
2010;DHT22;1008;47.404;8.502;2023-03-13T15:14:00;20.10;85.70
2010;DHT22;1008;47.404;8.502;2023-03-13T15:16:27;19.80;87.20
2010;DHT22;1008;47.404;8.502;2023-03-13T15:18:55;19.90;88.10
2010;DHT22;1008;47.404;8.502;2023-03-13T15:21:25;19.80;87.30
2010;DHT22;1008;47.404;8.502;2023-03-13T15:23:55;19.60;89.40
2010;DHT22;1008;47.404;8.502;2023-03-13T15:26:24;19.90;88.20
2010;DHT22;1008;47.404;8.502;2023-03-13T15:28:51;19.80;87.80
2010;DHT22;1008;47.404;8.502;2023-03-13T15:31:19;20.00;88.10
2010;DHT22;1008;47.404;8.502;2023-03-13T15:33:47;20.30;87.50
2010;DHT22;1008;47.404;8.502;2023-03-13T15:36:16;20.20;87.20
2010;DHT22;1008;47.404;8.502;2023-03-13T15:38:42;20.00;88.40
2010;DHT22;1008;47.404;8.502;2023-03-13T15:41:10;20.00;88.60
2010;DHT22;1008;47.404;8.502;2023-03-13T15:43:37;20.20;87.50
2010;DHT22;1008;47.404;8.502;2023-03-13T15:46:08;20.20;86.50
2010;DHT22;1008;47.404;8.502;2023-03-13T15:48:36;20.20;87.50
2010;DHT22;1008;47.404;8.502;2023-03-13T15:51:04;20.20;86.50
2010;DHT22;1008;47.404;8.502;2023-03-13T15:53:32;20.20;86.30
2010;DHT22;1008;47.404;8.502;2023-03-13T15:56:02;20.20;86.80
2010;DHT22;1008;47.404;8.502;2023-03-13T15:58:30;20.60;86.80
2010;DHT22;1008;47.404;8.502;2023-03-13T16:00:57;20.40;86.30
2010;DHT22;1008;47.404;8.502;2023-03-13T16:03:25;20.10;86.40
2010;DHT22;1008;47.404;8.502;2023-03-13T16:05:53;20.00;84.80
2010;DHT22;1008;47.404;8.502;2023-03-13T16:08:22;20.10;83.80
2010;DHT22;1008;47.404;8.502;2023-03-13T16:10:49;20.10;83.40
2010;DHT22;1008;47.404;8.502;2023-03-13T16:13:17;20.10;82.80
2010;DHT22;1008;47.404;8.502;2023-03-13T16:15:45;20.50;80.50
2010;DHT22;1008;47.404;8.502;2023-03-13T16:18:17;20.60;79.10
2010;DHT22;1008;47.404;8.502;2023-03-13T16:20:45;20.40;78.10
2010;DHT22;1008;47.404;8.502;2023-03-13T16:23:12;20.40;78.10
2010;DHT22;1008;47.404;8.502;2023-03-13T16:25:39;20.30;78.20
2010;DHT22;1008;47.404;8.502;2023-03-13T16:28:06;20.30;78.70
2010;DHT22;1008;47.404;8.502;2023-03-13T16:30:33;20.40;78.90
2010;DHT22;1008;47.404;8.502;2023-03-13T16:33:02;20.00;79.50